CST,Max TemperatureF,Mean TemperatureF,Min TemperatureF,Max Dew PointF,MeanDew PointF,Min DewpointF,Max Humidity, Mean Humidity, Min Humidity, Max Sea Level PressureIn, Mean Sea Level PressureIn, Min Sea Level PressureIn, Max VisibilityMiles, Mean VisibilityMiles, Min VisibilityMiles, Max Wind SpeedMPH, Mean Wind SpeedMPH, Max Gust SpeedMPH,PrecipitationIn, CloudCover, Events, WindDirDegrees
2012-2-1,-7,-19,-31,,,,,,,30.08,29.91,29.87,9,5,1,17,11,,0.00,6,,144
2012-2-2,-5,-17,-29,,,,,,,30.16,30.06,29.82,9,6,1,23,13,,0.00,1,Snow,160
2012-2-3,5,-6,-18,,,,,,,29.86,29.65,29.49,4,1,0,37,23,36,0.00,4,Snow,211
2012-2-4,-5,-12,-20,,,,,,,30.03,29.82,29.64,9,2,0,34,18,34,0.00,1,,30
2012-2-5,-14,-22,-31,,,,,,,30.33,30.26,30.10,9,3,0,30,15,33,0.00,3,,297
2012-2-6,-11,-16,-20,,,,,,,30.25,30.01,29.62,4,1,0,33,18,30,0.00,4,,266
2012-2-7,-22,-26,-31,,,,,,,29.76,29.65,29.55,5,1,0,50,33,51,0.00,2,Snow,308
2012-2-8,-11,-21,-31,,,,,,,30.03,29.80,29.75,9,4,1,16,10,,0.00,6,Snow,311
2012-2-9,-7,-15,-23,,,,,,,30.27,30.20,30.04,9,5,0,24,9,,0.00,4,Snow,292
2012-2-10,3,-2,-7,,,,,,,30.25,29.92,29.76,9,5,0,25,16,26,0.00,3,Snow,255
2012-2-11,-4,-11,-18,,,,,,,29.75,29.62,29.49,9,5,0,14,9,,0.00,3,,107
2012-2-12,1,-3,-7,,,,,,,29.52,29.41,29.37,9,4,1,18,11,,0.00,8,Snow,149
2012-2-13,1,-2,-5,,,,,,,29.67,29.60,29.43,9,8,3,13,7,,0.00,8,Snow,137
2012-2-14,0,-4,-7,,,,,,,29.63,29.51,29.47,9,5,1,18,7,,0.00,7,Snow,35
2012-2-15,0,-6,-11,,,,,,,29.80,29.58,29.48,9,4,1,20,16,,0.00,6,Snow,21
2012-2-16,-4,-16,-36,,,,,,,30.04,29.93,29.81,9,7,3,15,8,,0.00,2,,290
2012-2-17,-25,-34,-41,,,,,,,30.09,30.05,29.96,9,8,2,13,7,,0.00,1,,116
2012-2-18,-9,-16,-23,,,,,,,29.94,29.82,29.79,9,4,1,18,11,,0.00,2,Snow,68
2012-2-19,-23,-34,-47,,,,,,,30.22,30.04,29.90,9,6,1,21,15,,0.00,0,Snow,355
2012-2-20,-40,-44,-47,,,,,,,30.29,30.26,30.18,9,9,9,10,9,,0.00,0,Snow,116
2012-2-21,-25,-34,-43,,,,,,,30.23,30.07,29.92,9,9,9,12,10,,0.00,0,Snow,119
2012-2-22,-14,-18,-23,,,,,,,29.95,29.89,29.84,9,9,9,10,8,,0.00,0,Snow,118
2012-2-23,-16,-20,-25,,,,,,,29.94,29.88,29.83,9,6,1,7,6,,0.00,0,Snow,168
2012-2-24,-25,-36,-47,,,,,,,30.24,30.09,29.95,9,7,3,9,6,,0.00,1,,133
2012-2-25,-45,-47,-49,,,,,,,30.39,30.32,30.25,9,9,9,9,8,,0.00,0,,104
2012-2-26,-31,-42,-52,,,,,,,30.40,30.33,30.25,9,6,3,14,8,,0.00,5,,162
2012-2-27,-22,-28,-34,,,,,,,30.29,30.16,30.01,7,2,1,18,13,,0.00,4,,193
2012-2-28,-22,-30,-38,,,,,,,30.04,29.97,29.93,9,3,0,22,15,22,0.00,1,,216
2012-2-29,-34,-38,-41,,,,,,,30.04,29.98,29.87,9,5,1,13,7,,0.00,1,,240